Arlington, Kansas
Current Conditions -  °F | °C
As of 10:52 PM on Tuesday 25 Nov 2014 (Local Time) from KHUT Reporting Station
Clear Clear  
Wind Chill: 38°   Ceiling: Unl
Heat Index: 42°   Visibility: 10mi
Dew Point: 27°   Wind: 6mph
Humidity: 55%   Direction: 160°SSE
Pressure: 29.94"   Gusts: NA
Location:  37.9°N, 98.18°W
Report Text: KHUT 260452Z 16005KT 10SM CLR 06/M03 A2994 RMK AO2 SLP138 T00561028
Loading
Personal Weather Stations






























Interactive Weather Map New forecast layout! Learn more

10-Day Weather Forecast

Advertisements
Track Severe Weather on mobile